sensor_id;sensor_type;location;lat;lon;timestamp;temperature;humidity
1880;DHT22;49285;49.002;8.390;2024-03-02T00:02:01;8.70;99.90
1880;DHT22;49285;49.002;8.390;2024-03-02T00:04:27;8.70;99.90
1880;DHT22;49285;49.002;8.390;2024-03-02T00:06:52;8.70;99.90
1880;DHT22;49285;49.002;8.390;2024-03-02T00:09:20;8.70;99.90
1880;DHT22;49285;49.002;8.390;2024-03-02T00:11:45;8.70;99.90
1880;DHT22;49285;49.002;8.390;2024-03-02T00:14:11;8.70;99.90
1880;DHT22;49285;49.002;8.390;2024-03-02T00:16:37;8.70;99.90
1880;DHT22;49285;49.002;8.390;2024-03-02T00:19:03;8.60;99.90
1880;DHT22;49285;49.002;8.390;2024-03-02T00:21:31;8.60;99.90
1880;DHT22;49285;49.002;8.390;2024-03-02T00:23:57;8.60;99.90
1880;DHT22;49285;49.002;8.390;2024-03-02T00:26:23;8.60;99.90
1880;DHT22;49285;49.002;8.390;2024-03-02T00:28:48;8.60;99.90
1880;DHT22;49285;49.002;8.390;2024-03-02T00:31:16;8.50;99.90
1880;DHT22;49285;49.002;8.390;2024-03-02T00:33:48;8.60;99.90
1880;DHT22;49285;49.002;8.390;2024-03-02T00:36:24;8.50;99.90
1880;DHT22;49285;49.002;8.390;2024-03-02T00:38:51;8.50;99.90
1880;DHT22;49285;49.002;8.390;2024-03-02T00:41:31;8.50;99.90
1880;DHT22;49285;49.002;8.390;2024-03-02T00:44:04;8.50;99.90
1880;DHT22;49285;49.002;8.390;2024-03-02T00:46:38;8.50;99.90
1880;DHT22;49285;49.002;8.390;2024-03-02T00:49:05;8.40;99.90
1880;DHT22;49285;49.002;8.390;2024-03-02T00:51:35;8.40;99.90
1880;DHT22;49285;49.002;8.390;2024-03-02T00:54:04;8.40;99.90
1880;DHT22;49285;49.002;8.390;2024-03-02T00:56:30;8.40;99.90
1880;DHT22;49285;49.002;8.390;2024-03-02T00:58:56;8.40;99.90
1880;DHT22;49285;49.002;8.390;2024-03-02T01:01:22;8.40;99.90
1880;DHT22;49285;49.002;8.390;2024-03-02T01:03:48;8.40;99.90
1880;DHT22;49285;49.002;8.390;2024-03-02T01:06:15;8.40;99.90
1880;DHT22;49285;49.002;8.390;2024-03-02T01:08:41;8.30;99.90
1880;DHT22;49285;49.002;8.390;2024-03-02T01:11:06;8.30;99.90
1880;DHT22;49285;49.002;8.390;2024-03-02T01:13:32;8.30;99.90
1880;DHT22;49285;49.002;8.390;2024-03-02T01:15:58;8.20;99.90
1880;DHT22;49285;49.002;8.390;2024-03-02T01:18:24;8.20;99.90
1880;DHT22;49285;49.002;8.390;2024-03-02T01:20:50;8.10;99.90
1880;DHT22;49285;49.002;8.390;2024-03-02T01:23:22;8.00;99.90
1880;DHT22;49285;49.002;8.390;2024-03-02T01:25:47;8.00;99.90
1880;DHT22;49285;49.002;8.390;2024-03-02T01:28:14;8.00;99.90
1880;DHT22;49285;49.002;8.390;2024-03-02T01:30:39;7.90;99.90
1880;DHT22;49285;49.002;8.390;2024-03-02T01:33:05;7.90;99.90
1880;DHT22;49285;49.002;8.390;2024-03-02T01:35:31;7.90;99.90
1880;DHT22;49285;49.002;8.390;2024-03-02T01:37:57;7.90;99.90
1880;DHT22;49285;49.002;8.390;2024-03-02T01:40:23;7.90;99.90
1880;DHT22;49285;49.002;8.390;2024-03-02T01:42:52;7.90;99.90
1880;DHT22;49285;49.002;8.390;2024-03-02T01:45:18;7.90;99.90
1880;DHT22;49285;49.002;8.390;2024-03-02T01:47:44;7.80;99.90
1880;DHT22;49285;49.002;8.390;2024-03-02T01:50:11;7.80;99.90
1880;DHT22;49285;49.002;8.390;2024-03-02T01:52:36;7.80;99.90
1880;DHT22;49285;49.002;8.390;2024-03-02T01:55:02;7.80;99.90
1880;DHT22;49285;49.002;8.390;2024-03-02T01:57:29;7.80;99.90
1880;DHT22;49285;49.002;8.390;2024-03-02T01:59:55;7.80;99.90
1880;DHT22;49285;49.002;8.390;2024-03-02T02:02:20;7.70;99.90
1880;DHT22;49285;49.002;8.390;2024-03-02T02:04:46;7.70;99.90
1880;DHT22;49285;49.002;8.390;2024-03-02T02:07:12;7.70;99.90
1880;DHT22;49285;49.002;8.390;2024-03-02T02:09:40;7.70;99.90
1880;DHT22;49285;49.002;8.390;2024-03-02T02:12:06;7.70;99.90
1880;DHT22;49285;49.002;8.390;2024-03-02T02:14:33;7.70;99.90
1880;DHT22;49285;49.002;8.390;2024-03-02T02:16:59;7.70;99.90
1880;DHT22;49285;49.002;8.390;2024-03-02T02:19:25;7.70;99.90
1880;DHT22;49285;49.002;8.390;2024-03-02T02:21:50;7.70;99.90
1880;DHT22;49285;49.002;8.390;2024-03-02T02:24:16;7.70;99.90
1880;DHT22;49285;49.002;8.390;2024-03-02T02:26:41;7.60;99.90
1880;DHT22;49285;49.002;8.390;2024-03-02T02:29:07;7.60;99.90
1880;DHT22;49285;49.002;8.390;2024-03-02T02:31:39;7.60;99.90
1880;DHT22;49285;49.002;8.390;2024-03-02T02:34:06;7.60;99.90
1880;DHT22;49285;49.002;8.390;2024-03-02T02:36:36;7.60;99.90
1880;DHT22;49285;49.002;8.390;2024-03-02T02:39:04;7.60;99.90
1880;DHT22;49285;49.002;8.390;2024-03-02T02:41:30;7.50;99.90
1880;DHT22;49285;49.002;8.390;2024-03-02T02:43:56;7.50;99.90
1880;DHT22;49285;49.002;8.390;2024-03-02T02:46:21;7.50;99.90
1880;DHT22;49285;49.002;8.390;2024-03-02T02:48:47;7.50;99.90
1880;DHT22;49285;49.002;8.390;2024-03-02T02:51:12;7.50;99.90
1880;DHT22;49285;49.002;8.390;2024-03-02T02:53:38;7.50;99.90
1880;DHT22;49285;49.002;8.390;2024-03-02T02:56:06;7.50;99.90
1880;DHT22;49285;49.002;8.390;2024-03-02T02:58:32;7.50;99.90
1880;DHT22;49285;49.002;8.390;2024-03-02T03:00:57;7.50;99.90
1880;DHT22;49285;49.002;8.390;2024-03-02T03:03:23;7.50;99.90
1880;DHT22;49285;49.002;8.390;2024-03-02T03:05:49;7.50;99.90
1880;DHT22;49285;49.002;8.390;2024-03-02T03:08:14;7.50;99.90
1880;DHT22;49285;49.002;8.390;2024-03-02T03:10:41;7.50;99.90
1880;DHT22;49285;49.002;8.390;2024-03-02T03:13:07;7.50;99.90
1880;DHT22;49285;49.002;8.390;2024-03-02T03:15:35;7.50;99.90
1880;DHT22;49285;49.002;8.390;2024-03-02T03:18:04;7.50;99.90
1880;DHT22;49285;49.002;8.390;2024-03-02T03:20:30;7.50;99.90
1880;DHT22;49285;49.002;8.390;2024-03-02T03:22:56;7.50;99.90
1880;DHT22;49285;49.002;8.390;2024-03-02T03:25:22;7.50;99.90
1880;DHT22;49285;49.002;8.390;2024-03-02T03:27:48;7.50;99.90
1880;DHT22;49285;49.002;8.390;2024-03-02T03:30:14;7.50;99.90
1880;DHT22;49285;49.002;8.390;2024-03-02T03:32:39;7.50;99.90
1880;DHT22;49285;49.002;8.390;2024-03-02T03:35:06;7.40;99.90
1880;DHT22;49285;49.002;8.390;2024-03-02T03:37:32;7.50;99.90
1880;DHT22;49285;49.002;8.390;2024-03-02T03:40:01;7.40;99.90
1880;DHT22;49285;49.002;8.390;2024-03-02T03:42:28;7.40;99.90
1880;DHT22;49285;49.002;8.390;2024-03-02T03:44:53;7.40;99.90
1880;DHT22;49285;49.002;8.390;2024-03-02T03:47:19;7.40;99.90
1880;DHT22;49285;49.002;8.390;2024-03-02T03:49:45;7.40;99.90
1880;DHT22;49285;49.002;8.390;2024-03-02T03:52:11;7.40;99.90
1880;DHT22;49285;49.002;8.390;2024-03-02T03:54:36;7.40;99.90
1880;DHT22;49285;49.002;8.390;2024-03-02T03:57:03;7.40;99.90
1880;DHT22;49285;49.002;8.390;2024-03-02T03:59:29;7.40;99.90
1880;DHT22;49285;49.002;8.390;2024-03-02T04:01:55;7.40;99.90
1880;DHT22;49285;49.002;8.390;2024-03-02T04:04:20;7.40;99.90
1880;DHT22;49285;49.002;8.390;2024-03-02T04:06:46;7.40;99.90
1880;DHT22;49285;49.002;8.390;2024-03-02T04:09:11;7.40;99.90
1880;DHT22;49285;49.002;8.390;2024-03-02T04:11:37;7.40;99.90
1880;DHT22;49285;49.002;8.390;2024-03-02T04:14:02;7.40;99.90
1880;DHT22;49285;49.002;8.390;2024-03-02T04:16:28;7.40;99.90
1880;DHT22;49285;49.002;8.390;2024-03-02T04:18:54;7.40;99.90
1880;DHT22;49285;49.002;8.390;2024-03-02T04:21:19;7.40;99.90
1880;DHT22;49285;49.002;8.390;2024-03-02T04:23:45;7.30;99.90
1880;DHT22;49285;49.002;8.390;2024-03-02T04:26:11;7.30;99.90
1880;DHT22;49285;49.002;8.390;2024-03-02T04:28:36;7.30;99.90
1880;DHT22;49285;49.002;8.390;2024-03-02T04:31:02;7.30;99.90
1880;DHT22;49285;49.002;8.390;2024-03-02T04:33:27;7.30;99.90
1880;DHT22;49285;49.002;8.390;2024-03-02T04:35:53;7.30;99.90
1880;DHT22;49285;49.002;8.390;2024-03-02T04:38:18;7.30;99.90
1880;DHT22;49285;49.002;8.390;2024-03-02T04:40:44;7.30;99.90
1880;DHT22;49285;49.002;8.390;2024-03-02T04:43:09;7.30;99.90
1880;DHT22;49285;49.002;8.390;2024-03-02T04:45:38;7.30;99.90
1880;DHT22;49285;49.002;8.390;2024-03-02T04:48:04;7.30;99.90
1880;DHT22;49285;49.002;8.390;2024-03-02T04:50:29;7.30;99.90
1880;DHT22;49285;49.002;8.390;2024-03-02T04:52:55;7.30;99.90
1880;DHT22;49285;49.002;8.390;2024-03-02T04:55:20;7.30;99.90
1880;DHT22;49285;49.002;8.390;2024-03-02T04:57:49;7.20;99.90
1880;DHT22;49285;49.002;8.390;2024-03-02T05:00:16;7.20;99.90
1880;DHT22;49285;49.002;8.390;2024-03-02T05:02:42;7.20;99.90
1880;DHT22;49285;49.002;8.390;2024-03-02T05:05:08;7.20;99.90
1880;DHT22;49285;49.002;8.390;2024-03-02T05:07:33;7.20;99.90
1880;DHT22;49285;49.002;8.390;2024-03-02T05:09:59;7.20;99.90
1880;DHT22;49285;49.002;8.390;2024-03-02T05:12:25;7.10;99.90
1880;DHT22;49285;49.002;8.390;2024-03-02T05:15:13;7.10;99.90
1880;DHT22;49285;49.002;8.390;2024-03-02T05:17:40;7.00;99.90
1880;DHT22;49285;49.002;8.390;2024-03-02T05:20:06;7.00;99.90
1880;DHT22;49285;49.002;8.390;2024-03-02T05:22:33;7.00;99.90
1880;DHT22;49285;49.002;8.390;2024-03-02T05:25:00;6.90;99.90
1880;DHT22;49285;49.002;8.390;2024-03-02T05:27:29;6.90;99.90
1880;DHT22;49285;49.002;8.390;2024-03-02T05:29:54;6.80;99.90
1880;DHT22;49285;49.002;8.390;2024-03-02T05:32:20;6.80;99.90
1880;DHT22;49285;49.002;8.390;2024-03-02T05:34:46;6.70;99.90
1880;DHT22;49285;49.002;8.390;2024-03-02T05:37:11;6.70;99.90
1880;DHT22;49285;49.002;8.390;2024-03-02T05:39:37;6.60;99.90
1880;DHT22;49285;49.002;8.390;2024-03-02T05:42:03;6.60;99.90
1880;DHT22;49285;49.002;8.390;2024-03-02T05:44:28;6.50;99.90
1880;DHT22;49285;49.002;8.390;2024-03-02T05:46:54;6.50;99.90
1880;DHT22;49285;49.002;8.390;2024-03-02T05:49:20;6.50;99.90
1880;DHT22;49285;49.002;8.390;2024-03-02T05:51:46;6.50;99.90
1880;DHT22;49285;49.002;8.390;2024-03-02T05:54:11;6.50;99.90
1880;DHT22;49285;49.002;8.390;2024-03-02T05:56:37;6.50;99.90
1880;DHT22;49285;49.002;8.390;2024-03-02T05:59:03;6.50;99.90
1880;DHT22;49285;49.002;8.390;2024-03-02T06:01:47;6.50;99.90
1880;DHT22;49285;49.002;8.390;2024-03-02T06:04:15;6.40;99.90
1880;DHT22;49285;49.002;8.390;2024-03-02T06:06:41;6.40;99.90
1880;DHT22;49285;49.002;8.390;2024-03-02T06:09:08;6.40;99.90
1880;DHT22;49285;49.002;8.390;2024-03-02T06:11:37;6.40;99.90
1880;DHT22;49285;49.002;8.390;2024-03-02T06:14:04;6.40;99.90
1880;DHT22;49285;49.002;8.390;2024-03-02T06:16:30;6.40;99.90
1880;DHT22;49285;49.002;8.390;2024-03-02T06:18:56;6.40;99.90
1880;DHT22;49285;49.002;8.390;2024-03-02T06:21:23;6.40;99.90
1880;DHT22;49285;49.002;8.390;2024-03-02T06:23:49;6.40;99.90
1880;DHT22;49285;49.002;8.390;2024-03-02T06:26:14;6.40;99.90
1880;DHT22;49285;49.002;8.390;2024-03-02T06:28:40;6.50;99.90
1880;DHT22;49285;49.002;8.390;2024-03-02T06:31:06;6.50;99.90
1880;DHT22;49285;49.002;8.390;2024-03-02T06:33:31;6.50;99.90
1880;DHT22;49285;49.002;8.390;2024-03-02T06:35:57;6.50;99.90
1880;DHT22;49285;49.002;8.390;2024-03-02T06:38:22;6.50;99.90
1880;DHT22;49285;49.002;8.390;2024-03-02T06:40:48;6.50;99.90
1880;DHT22;49285;49.002;8.390;2024-03-02T06:43:14;6.50;99.90
1880;DHT22;49285;49.002;8.390;2024-03-02T06:45:39;6.60;99.90
1880;DHT22;49285;49.002;8.390;2024-03-02T06:48:05;6.60;99.90
1880;DHT22;49285;49.002;8.390;2024-03-02T06:50:31;6.60;99.90
1880;DHT22;49285;49.002;8.390;2024-03-02T06:52:56;6.60;99.90
1880;DHT22;49285;49.002;8.390;2024-03-02T06:55:22;6.60;99.90
1880;DHT22;49285;49.002;8.390;2024-03-02T06:57:50;6.60;99.90
1880;DHT22;49285;49.002;8.390;2024-03-02T07:00:16;6.60;99.90
1880;DHT22;49285;49.002;8.390;2024-03-02T07:02:43;6.60;99.90
1880;DHT22;49285;49.002;8.390;2024-03-02T07:05:09;6.60;99.90
1880;DHT22;49285;49.002;8.390;2024-03-02T07:07:35;6.60;99.90
1880;DHT22;49285;49.002;8.390;2024-03-02T07:10:02;6.60;99.90
1880;DHT22;49285;49.002;8.390;2024-03-02T07:12:28;6.60;99.90
1880;DHT22;49285;49.002;8.390;2024-03-02T07:14:54;6.60;99.90
1880;DHT22;49285;49.002;8.390;2024-03-02T07:17:37;6.60;99.90
1880;DHT22;49285;49.002;8.390;2024-03-02T07:20:03;6.60;99.90
1880;DHT22;49285;49.002;8.390;2024-03-02T07:22:32;6.70;99.90
1880;DHT22;49285;49.002;8.390;2024-03-02T07:24:58;6.70;99.90
1880;DHT22;49285;49.002;8.390;2024-03-02T07:27:24;6.70;99.90
1880;DHT22;49285;49.002;8.390;2024-03-02T07:29:49;6.70;99.90
1880;DHT22;49285;49.002;8.390;2024-03-02T07:32:15;6.80;99.90
1880;DHT22;49285;49.002;8.390;2024-03-02T07:34:41;6.90;99.90
1880;DHT22;49285;49.002;8.390;2024-03-02T07:37:06;6.90;99.90
1880;DHT22;49285;49.002;8.390;2024-03-02T07:39:32;7.00;99.90
1880;DHT22;49285;49.002;8.390;2024-03-02T07:41:58;7.10;99.90
1880;DHT22;49285;49.002;8.390;2024-03-02T07:44:24;7.20;99.90
1880;DHT22;49285;49.002;8.390;2024-03-02T07:46:50;7.20;99.90
1880;DHT22;49285;49.002;8.390;2024-03-02T07:49:16;7.40;99.90
1880;DHT22;49285;49.002;8.390;2024-03-02T07:51:41;7.40;99.90
1880;DHT22;49285;49.002;8.390;2024-03-02T07:54:07;7.50;99.90
1880;DHT22;49285;49.002;8.390;2024-03-02T07:56:33;7.60;99.90
1880;DHT22;49285;49.002;8.390;2024-03-02T07:58:59;7.70;99.90
1880;DHT22;49285;49.002;8.390;2024-03-02T08:01:30;7.70;99.90
1880;DHT22;49285;49.002;8.390;2024-03-02T08:03:57;7.80;99.90
1880;DHT22;49285;49.002;8.390;2024-03-02T08:06:24;7.90;99.90
1880;DHT22;49285;49.002;8.390;2024-03-02T08:09:01;8.00;99.90
1880;DHT22;49285;49.002;8.390;2024-03-02T08:11:29;8.00;99.90
1880;DHT22;49285;49.002;8.390;2024-03-02T08:13:56;8.10;99.90
1880;DHT22;49285;49.002;8.390;2024-03-02T08:16:23;8.20;99.90
1880;DHT22;49285;49.002;8.390;2024-03-02T08:18:49;8.20;99.90
1880;DHT22;49285;49.002;8.390;2024-03-02T08:21:15;8.30;99.90
1880;DHT22;49285;49.002;8.390;2024-03-02T08:23:41;8.40;99.90
1880;DHT22;49285;49.002;8.390;2024-03-02T08:26:08;8.40;99.90
1880;DHT22;49285;49.002;8.390;2024-03-02T08:28:34;8.50;99.90
1880;DHT22;49285;49.002;8.390;2024-03-02T08:30:59;8.60;99.90
1880;DHT22;49285;49.002;8.390;2024-03-02T08:33:25;8.60;99.90
1880;DHT22;49285;49.002;8.390;2024-03-02T08:35:51;8.70;99.90
1880;DHT22;49285;49.002;8.390;2024-03-02T08:38:16;8.80;99.90
1880;DHT22;49285;49.002;8.390;2024-03-02T08:40:42;8.80;99.90
1880;DHT22;49285;49.002;8.390;2024-03-02T08:43:08;8.90;99.90
1880;DHT22;49285;49.002;8.390;2024-03-02T08:45:33;9.00;99.90
1880;DHT22;49285;49.002;8.390;2024-03-02T08:48:00;9.10;99.90
1880;DHT22;49285;49.002;8.390;2024-03-02T08:50:25;9.10;99.90
1880;DHT22;49285;49.002;8.390;2024-03-02T08:52:51;9.20;99.90
1880;DHT22;49285;49.002;8.390;2024-03-02T08:55:16;9.30;99.90
1880;DHT22;49285;49.002;8.390;2024-03-02T08:57:42;9.40;99.90
1880;DHT22;49285;49.002;8.390;2024-03-02T09:00:08;9.50;99.90
1880;DHT22;49285;49.002;8.390;2024-03-02T09:02:34;9.50;99.90
1880;DHT22;49285;49.002;8.390;2024-03-02T09:04:59;9.60;99.90
1880;DHT22;49285;49.002;8.390;2024-03-02T09:07:25;9.70;99.90
1880;DHT22;49285;49.002;8.390;2024-03-02T09:09:51;9.80;99.90
1880;DHT22;49285;49.002;8.390;2024-03-02T09:12:18;9.80;99.90
1880;DHT22;49285;49.002;8.390;2024-03-02T09:14:44;9.90;99.90
1880;DHT22;49285;49.002;8.390;2024-03-02T09:17:10;9.90;99.90
1880;DHT22;49285;49.002;8.390;2024-03-02T09:19:37;10.00;99.90
1880;DHT22;49285;49.002;8.390;2024-03-02T09:22:02;10.10;99.90
1880;DHT22;49285;49.002;8.390;2024-03-02T09:24:33;10.10;99.90
1880;DHT22;49285;49.002;8.390;2024-03-02T09:26:59;10.20;99.90
1880;DHT22;49285;49.002;8.390;2024-03-02T09:29:25;10.30;99.90
1880;DHT22;49285;49.002;8.390;2024-03-02T09:31:50;10.30;99.90
1880;DHT22;49285;49.002;8.390;2024-03-02T09:34:16;10.40;99.90
1880;DHT22;49285;49.002;8.390;2024-03-02T09:36:42;10.50;99.90
1880;DHT22;49285;49.002;8.390;2024-03-02T09:39:08;10.50;99.90
1880;DHT22;49285;49.002;8.390;2024-03-02T09:41:36;10.60;99.90
1880;DHT22;49285;49.002;8.390;2024-03-02T09:44:02;10.60;99.90
1880;DHT22;49285;49.002;8.390;2024-03-02T09:46:28;10.60;99.90
1880;DHT22;49285;49.002;8.390;2024-03-02T09:48:54;10.70;99.90
1880;DHT22;49285;49.002;8.390;2024-03-02T09:51:20;10.80;99.90
1880;DHT22;49285;49.002;8.390;2024-03-02T09:53:45;10.90;99.90
1880;DHT22;49285;49.002;8.390;2024-03-02T09:56:12;10.90;99.90
1880;DHT22;49285;49.002;8.390;2024-03-02T09:58:38;10.90;99.90
1880;DHT22;49285;49.002;8.390;2024-03-02T10:01:07;11.00;99.90
1880;DHT22;49285;49.002;8.390;2024-03-02T10:03:34;11.00;99.90
1880;DHT22;49285;49.002;8.390;2024-03-02T10:08:46;11.30;99.90
1880;DHT22;49285;49.002;8.390;2024-03-02T10:11:29;11.40;99.90
1880;DHT22;49285;49.002;8.390;2024-03-02T10:14:14;11.40;99.90
1880;DHT22;49285;49.002;8.390;2024-03-02T10:16:41;11.60;99.90
1880;DHT22;49285;49.002;8.390;2024-03-02T10:19:21;11.70;99.90
1880;DHT22;49285;49.002;8.390;2024-03-02T10:21:53;11.80;99.90
1880;DHT22;49285;49.002;8.390;2024-03-02T10:24:20;11.90;99.90
1880;DHT22;49285;49.002;8.390;2024-03-02T10:26:47;12.00;99.90
1880;DHT22;49285;49.002;8.390;2024-03-02T10:29:12;12.10;99.90
1880;DHT22;49285;49.002;8.390;2024-03-02T10:31:39;12.20;99.90
1880;DHT22;49285;49.002;8.390;2024-03-02T10:34:06;12.30;99.90
1880;DHT22;49285;49.002;8.390;2024-03-02T10:36:36;12.50;99.90
1880;DHT22;49285;49.002;8.390;2024-03-02T10:41:32;12.60;99.90
1880;DHT22;49285;49.002;8.390;2024-03-02T10:43:59;12.70;99.90
1880;DHT22;49285;49.002;8.390;2024-03-02T10:46:29;12.80;99.90
1880;DHT22;49285;49.002;8.390;2024-03-02T10:48:58;12.90;99.90
1880;DHT22;49285;49.002;8.390;2024-03-02T10:51:28;12.90;99.90
1880;DHT22;49285;49.002;8.390;2024-03-02T10:53:57;13.00;99.90
1880;DHT22;49285;49.002;8.390;2024-03-02T10:56:30;13.10;99.90
1880;DHT22;49285;49.002;8.390;2024-03-02T10:59:24;13.10;99.90
1880;DHT22;49285;49.002;8.390;2024-03-02T11:01:55;13.20;99.90
1880;DHT22;49285;49.002;8.390;2024-03-02T11:04:21;13.30;99.90
1880;DHT22;49285;49.002;8.390;2024-03-02T11:06:50;13.40;99.90
1880;DHT22;49285;49.002;8.390;2024-03-02T11:09:23;13.50;99.90
1880;DHT22;49285;49.002;8.390;2024-03-02T11:12:00;13.60;99.90
1880;DHT22;49285;49.002;8.390;2024-03-02T11:14:32;13.60;99.90
1880;DHT22;49285;49.002;8.390;2024-03-02T11:17:00;13.70;99.90
1880;DHT22;49285;49.002;8.390;2024-03-02T11:19:27;13.80;99.90
1880;DHT22;49285;49.002;8.390;2024-03-02T11:21:53;13.90;99.90
1880;DHT22;49285;49.002;8.390;2024-03-02T11:26:49;14.00;99.90
1880;DHT22;49285;49.002;8.390;2024-03-02T11:32:01;14.10;99.90
1880;DHT22;49285;49.002;8.390;2024-03-02T11:34:32;14.10;99.90
1880;DHT22;49285;49.002;8.390;2024-03-02T11:36:59;14.20;99.90
1880;DHT22;49285;49.002;8.390;2024-03-02T11:39:28;14.30;99.90
1880;DHT22;49285;49.002;8.390;2024-03-02T11:41:55;14.40;99.90
1880;DHT22;49285;49.002;8.390;2024-03-02T11:44:21;14.50;99.90
1880;DHT22;49285;49.002;8.390;2024-03-02T11:46:58;14.50;99.90
1880;DHT22;49285;49.002;8.390;2024-03-02T11:49:40;14.70;99.90
1880;DHT22;49285;49.002;8.390;2024-03-02T11:52:08;14.80;99.90
1880;DHT22;49285;49.002;8.390;2024-03-02T11:54:36;15.00;99.90
1880;DHT22;49285;49.002;8.390;2024-03-02T11:57:02;15.20;99.90
1880;DHT22;49285;49.002;8.390;2024-03-02T11:59:32;15.30;99.90
1880;DHT22;49285;49.002;8.390;2024-03-02T12:01:58;15.50;99.90
1880;DHT22;49285;49.002;8.390;2024-03-02T12:04:24;15.70;99.90
1880;DHT22;49285;49.002;8.390;2024-03-02T12:06:58;15.90;99.90
1880;DHT22;49285;49.002;8.390;2024-03-02T12:09:28;16.30;99.90
1880;DHT22;49285;49.002;8.390;2024-03-02T12:12:10;16.70;99.90
1880;DHT22;49285;49.002;8.390;2024-03-02T12:14:37;18.80;99.90
1880;DHT22;49285;49.002;8.390;2024-03-02T12:17:04;21.70;99.90
1880;DHT22;49285;49.002;8.390;2024-03-02T12:19:30;23.60;95.30
1880;DHT22;49285;49.002;8.390;2024-03-02T12:21:57;25.40;83.90
1880;DHT22;49285;49.002;8.390;2024-03-02T12:24:23;26.50;72.10
1880;DHT22;49285;49.002;8.390;2024-03-02T12:26:50;28.10;65.60
1880;DHT22;49285;49.002;8.390;2024-03-02T12:29:16;29.90;59.90
1880;DHT22;49285;49.002;8.390;2024-03-02T12:31:42;31.40;54.80
1880;DHT22;49285;49.002;8.390;2024-03-02T12:34:12;32.70;50.40
1880;DHT22;49285;49.002;8.390;2024-03-02T12:36:39;33.70;45.80
1880;DHT22;49285;49.002;8.390;2024-03-02T12:39:05;34.90;44.60
1880;DHT22;49285;49.002;8.390;2024-03-02T12:41:30;35.90;42.10
1880;DHT22;49285;49.002;8.390;2024-03-02T12:43:56;36.70;38.90
1880;DHT22;49285;49.002;8.390;2024-03-02T12:46:22;37.40;37.60
1880;DHT22;49285;49.002;8.390;2024-03-02T12:48:47;37.90;34.20
1880;DHT22;49285;49.002;8.390;2024-03-02T12:51:13;38.40;33.80
1880;DHT22;49285;49.002;8.390;2024-03-02T12:53:39;38.50;32.90
1880;DHT22;49285;49.002;8.390;2024-03-02T12:56:05;38.80;32.40
1880;DHT22;49285;49.002;8.390;2024-03-02T12:58:39;39.10;30.10
1880;DHT22;49285;49.002;8.390;2024-03-02T13:01:06;39.10;31.00
1880;DHT22;49285;49.002;8.390;2024-03-02T13:03:36;39.30;31.30
1880;DHT22;49285;49.002;8.390;2024-03-02T13:06:02;39.40;29.70
1880;DHT22;49285;49.002;8.390;2024-03-02T13:08:27;39.30;29.50
1880;DHT22;49285;49.002;8.390;2024-03-02T13:10:53;39.20;29.20
1880;DHT22;49285;49.002;8.390;2024-03-02T13:13:19;39.20;29.40
1880;DHT22;49285;49.002;8.390;2024-03-02T13:15:45;39.20;29.60
1880;DHT22;49285;49.002;8.390;2024-03-02T13:18:11;39.20;29.20
1880;DHT22;49285;49.002;8.390;2024-03-02T13:20:36;39.00;29.20
1880;DHT22;49285;49.002;8.390;2024-03-02T13:23:02;38.50;29.00
1880;DHT22;49285;49.002;8.390;2024-03-02T13:25:28;37.30;28.90
1880;DHT22;49285;49.002;8.390;2024-03-02T13:27:55;36.10;29.40
1880;DHT22;49285;49.002;8.390;2024-03-02T13:30:21;34.80;30.00
1880;DHT22;49285;49.002;8.390;2024-03-02T13:32:46;33.80;31.10
1880;DHT22;49285;49.002;8.390;2024-03-02T13:35:12;33.00;31.90
1880;DHT22;49285;49.002;8.390;2024-03-02T13:37:38;32.10;32.30
1880;DHT22;49285;49.002;8.390;2024-03-02T13:40:04;31.40;33.30
1880;DHT22;49285;49.002;8.390;2024-03-02T13:42:30;30.80;33.70
1880;DHT22;49285;49.002;8.390;2024-03-02T13:44:56;30.10;34.20
1880;DHT22;49285;49.002;8.390;2024-03-02T13:47:22;29.60;35.10
1880;DHT22;49285;49.002;8.390;2024-03-02T13:49:48;29.20;35.70
1880;DHT22;49285;49.002;8.390;2024-03-02T13:52:14;28.80;36.30
1880;DHT22;49285;49.002;8.390;2024-03-02T13:54:41;28.40;36.70
1880;DHT22;49285;49.002;8.390;2024-03-02T13:57:07;27.90;37.30
1880;DHT22;49285;49.002;8.390;2024-03-02T13:59:34;27.60;37.90
1880;DHT22;49285;49.002;8.390;2024-03-02T14:02:04;27.30;38.40
1880;DHT22;49285;49.002;8.390;2024-03-02T14:04:33;26.80;38.80
1880;DHT22;49285;49.002;8.390;2024-03-02T14:06:59;26.40;39.30
1880;DHT22;49285;49.002;8.390;2024-03-02T14:09:25;26.20;39.90
1880;DHT22;49285;49.002;8.390;2024-03-02T14:11:51;26.00;40.40
1880;DHT22;49285;49.002;8.390;2024-03-02T14:14:17;25.80;41.10
1880;DHT22;49285;49.002;8.390;2024-03-02T14:16:43;25.50;41.60
1880;DHT22;49285;49.002;8.390;2024-03-02T14:19:09;25.40;41.60
1880;DHT22;49285;49.002;8.390;2024-03-02T14:21:35;25.20;41.80
1880;DHT22;49285;49.002;8.390;2024-03-02T14:24:01;25.00;42.30
1880;DHT22;49285;49.002;8.390;2024-03-02T14:26:27;24.60;42.30
1880;DHT22;49285;49.002;8.390;2024-03-02T14:28:54;24.20;42.80
1880;DHT22;49285;49.002;8.390;2024-03-02T14:31:20;23.90;43.30
1880;DHT22;49285;49.002;8.390;2024-03-02T14:33:46;23.50;43.80
1880;DHT22;49285;49.002;8.390;2024-03-02T14:36:12;23.10;44.30
1880;DHT22;49285;49.002;8.390;2024-03-02T14:38:38;22.80;44.90
1880;DHT22;49285;49.002;8.390;2024-03-02T14:41:04;22.50;45.30
1880;DHT22;49285;49.002;8.390;2024-03-02T14:43:29;22.20;45.90
1880;DHT22;49285;49.002;8.390;2024-03-02T14:45:55;21.90;46.40
1880;DHT22;49285;49.002;8.390;2024-03-02T14:48:21;21.70;46.90
1880;DHT22;49285;49.002;8.390;2024-03-02T14:50:47;21.40;47.30
1880;DHT22;49285;49.002;8.390;2024-03-02T14:53:13;21.20;47.80
1880;DHT22;49285;49.002;8.390;2024-03-02T14:55:38;21.10;48.20
1880;DHT22;49285;49.002;8.390;2024-03-02T14:58:04;20.90;48.40
1880;DHT22;49285;49.002;8.390;2024-03-02T15:00:29;20.80;48.80
1880;DHT22;49285;49.002;8.390;2024-03-02T15:02:55;20.60;49.20
1880;DHT22;49285;49.002;8.390;2024-03-02T15:05:21;20.50;49.50
1880;DHT22;49285;49.002;8.390;2024-03-02T15:07:46;20.30;49.70
1880;DHT22;49285;49.002;8.390;2024-03-02T15:10:12;20.10;50.00
1880;DHT22;49285;49.002;8.390;2024-03-02T15:12:37;20.00;50.40
1880;DHT22;49285;49.002;8.390;2024-03-02T15:15:03;19.80;50.80
1880;DHT22;49285;49.002;8.390;2024-03-02T15:17:29;19.60;51.00
1880;DHT22;49285;49.002;8.390;2024-03-02T15:19:55;19.50;51.40
1880;DHT22;49285;49.002;8.390;2024-03-02T15:22:21;19.40;51.90
1880;DHT22;49285;49.002;8.390;2024-03-02T15:24:46;19.20;52.40
1880;DHT22;49285;49.002;8.390;2024-03-02T15:27:12;19.10;52.80
1880;DHT22;49285;49.002;8.390;2024-03-02T15:29:38;19.00;53.30
1880;DHT22;49285;49.002;8.390;2024-03-02T15:32:05;18.90;53.60
1880;DHT22;49285;49.002;8.390;2024-03-02T15:34:32;18.80;53.80
1880;DHT22;49285;49.002;8.390;2024-03-02T15:36:58;18.70;54.10
1880;DHT22;49285;49.002;8.390;2024-03-02T15:39:24;18.60;54.50
1880;DHT22;49285;49.002;8.390;2024-03-02T15:41:49;18.60;54.60
1880;DHT22;49285;49.002;8.390;2024-03-02T15:44:16;18.50;54.90
1880;DHT22;49285;49.002;8.390;2024-03-02T15:46:41;18.40;55.30
1880;DHT22;49285;49.002;8.390;2024-03-02T15:49:07;18.30;55.70
1880;DHT22;49285;49.002;8.390;2024-03-02T15:51:34;18.20;55.80
1880;DHT22;49285;49.002;8.390;2024-03-02T15:54:01;18.10;56.10
1880;DHT22;49285;49.002;8.390;2024-03-02T15:56:27;18.10;56.30
1880;DHT22;49285;49.002;8.390;2024-03-02T15:58:53;18.00;56.50
1880;DHT22;49285;49.002;8.390;2024-03-02T16:01:18;17.90;56.60
1880;DHT22;49285;49.002;8.390;2024-03-02T16:03:45;17.80;56.90